Mallie, Kentucky
Current Conditions -  °F | °C
As of 3:55 AM on Thursday 27 Nov 2014 (Local Time) from KLNP Reporting Station
Light Snow Light Snow  
Wind Chill: 34°   Ceiling: 3100
Heat Index: 34°   Visibility: 4mi
Dew Point: 32°   Wind: 3mph
Humidity: 93%   Direction: 250°WSW
Pressure: 29.95"   Gusts: NA
Location:  37.24°N, 82.91°W
Report Text: KLNP 270855Z AUTO 25003KT 4SM -SN SCT015 SCT020 OVC031 01/00 A2995 RMK AO2
Loading
Personal Weather Stations






























Interactive Weather Map New forecast layout! Learn more

10-Day Weather Forecast

Advertisements
Track Severe Weather on mobile